createdAt,value
2018-12-11T00:01:30.033Z,100.00
2018-12-11T00:03:58.545Z,100.00
2018-12-11T00:06:31.718Z,100.00
2018-12-11T00:09:00.208Z,100.00
2018-12-11T00:11:33.909Z,100.00
2018-12-11T00:13:57.240Z,100.00
2018-12-11T00:16:25.767Z,100.00
2018-12-11T00:18:54.273Z,100.00
2018-12-11T00:21:22.814Z,100.00
2018-12-11T00:23:51.339Z,100.00
2018-12-11T00:26:19.874Z,100.00
2018-12-11T00:28:48.366Z,100.00
2018-12-11T00:31:16.908Z,100.00
2018-12-11T00:33:46.378Z,100.00
2018-12-11T00:36:14.894Z,100.00
2018-12-11T00:38:43.413Z,100.00
2018-12-11T00:41:11.929Z,100.00
2018-12-11T00:43:40.466Z,100.00
2018-12-11T00:46:08.983Z,100.00
2018-12-11T00:48:37.563Z,100.00
2018-12-11T00:51:06.166Z,100.00
2018-12-11T00:53:34.665Z,100.00
2018-12-11T00:56:03.177Z,100.00
2018-12-11T00:58:31.702Z,100.00
2018-12-11T01:01:00.242Z,100.00
2018-12-11T01:03:28.802Z,100.00
2018-12-11T01:05:57.318Z,100.00
2018-12-11T01:08:25.849Z,100.00
2018-12-11T01:10:54.383Z,100.00
2018-12-11T01:13:22.931Z,100.00
2018-12-11T01:15:52.416Z,100.00
2018-12-11T01:18:25.135Z,100.00
2018-12-11T01:20:53.637Z,100.00
2018-12-11T01:23:22.142Z,100.00
2018-12-11T01:25:51.574Z,100.00
2018-12-11T01:28:20.104Z,100.00
2018-12-11T01:30:48.624Z,100.00
2018-12-11T01:33:17.138Z,100.00
2018-12-11T01:35:45.888Z,100.00
2018-12-11T01:38:14.387Z,100.00
2018-12-11T01:40:42.902Z,100.00
2018-12-11T01:43:11.431Z,100.00
2018-12-11T01:45:39.969Z,100.00
2018-12-11T01:48:08.479Z,100.00
2018-12-11T01:50:37.016Z,100.00
2018-12-11T01:53:05.531Z,100.00
2018-12-11T01:55:34.048Z,100.00
2018-12-11T01:58:02.572Z,100.00
2018-12-11T02:00:35.186Z,100.00
2018-12-11T02:03:03.677Z,100.00
2018-12-11T02:05:33.158Z,100.00
2018-12-11T02:08:01.670Z,100.00
2018-12-11T02:10:30.235Z,100.00
2018-12-11T02:12:58.959Z,100.00
2018-12-11T02:15:27.489Z,100.00
2018-12-11T02:17:56.000Z,100.00
2018-12-11T02:20:25.487Z,100.00
2018-12-11T02:22:54.006Z,100.00
2018-12-11T02:25:22.529Z,100.00
2018-12-11T02:27:51.042Z,100.00
2018-12-11T02:30:19.591Z,100.00
2018-12-11T02:32:48.104Z,100.00
2018-12-11T02:35:18.559Z,100.00
2018-12-11T02:37:48.007Z,100.00
2018-12-11T02:40:17.487Z,100.00
2018-12-11T02:42:46.054Z,100.00
2018-12-11T02:45:15.592Z,100.00
2018-12-11T02:47:44.139Z,100.00
2018-12-11T02:50:12.648Z,100.00
2018-12-11T02:52:41.171Z,100.00
2018-12-11T02:55:09.684Z,100.00
2018-12-11T02:57:39.129Z,100.00
2018-12-11T03:00:07.646Z,100.00
2018-12-11T03:02:36.182Z,100.00
2018-12-11T03:05:04.702Z,100.00
2018-12-11T03:07:33.247Z,100.00
2018-12-11T03:14:08.366Z,100.00
2018-12-11T03:19:13.146Z,100.00
2018-12-11T03:21:42.204Z,99.32
2018-12-11T03:24:11.247Z,99.71
2018-12-11T03:26:40.284Z,98.90
2018-12-11T03:29:09.336Z,98.69
2018-12-11T03:31:38.376Z,97.98
2018-12-11T03:34:07.466Z,98.58
2018-12-11T03:36:36.519Z,97.96
2018-12-11T03:39:05.562Z,97.25
2018-12-11T03:41:34.603Z,96.62
2018-12-11T03:46:39.384Z,95.91
2018-12-11T03:49:08.449Z,96.44
2018-12-11T03:54:14.868Z,97.82
2018-12-11T03:56:43.885Z,97.88
2018-12-11T03:59:12.936Z,98.36
2018-12-11T04:01:42.863Z,98.48
2018-12-11T04:04:11.904Z,98.38
2018-12-11T04:06:40.974Z,98.25
2018-12-11T04:09:10.027Z,98.61
2018-12-11T04:11:39.088Z,99.14
2018-12-11T04:14:08.140Z,99.08
2018-12-11T04:16:37.167Z,98.86
2018-12-11T04:19:07.180Z,98.54
2018-12-11T04:21:36.218Z,98.12
2018-12-11T04:24:07.292Z,98.87
2018-12-11T04:26:36.294Z,98.87
2018-12-11T04:29:05.366Z,98.87
2018-12-11T04:34:14.196Z,98.84
2018-12-11T04:36:43.221Z,98.49
2018-12-11T04:39:12.247Z,98.93
2018-12-11T04:41:41.291Z,98.59
2018-12-11T04:44:10.346Z,98.13
2018-12-11T04:49:15.120Z,99.28
2018-12-11T04:51:44.157Z,99.14
2018-12-11T04:54:13.289Z,99.64
2018-12-11T04:56:42.428Z,99.81
2018-12-11T04:59:11.547Z,99.52
2018-12-11T05:01:40.694Z,99.76
2018-12-11T05:04:11.061Z,100.00
2018-12-11T05:06:40.715Z,100.00
2018-12-11T05:09:10.151Z,100.00
2018-12-11T05:11:39.213Z,100.00
2018-12-11T05:14:09.331Z,100.00
2018-12-11T05:16:38.412Z,99.91
2018-12-11T05:19:07.536Z,99.12
2018-12-11T05:21:57.665Z,99.64
2018-12-11T05:24:26.772Z,98.94
2018-12-11T05:26:55.880Z,99.40
2018-12-11T05:29:25.883Z,98.69
2018-12-11T05:31:56.574Z,98.91
2018-12-11T05:34:25.738Z,99.18
2018-12-11T05:36:55.825Z,99.17
2018-12-11T05:42:00.623Z,98.47
2018-12-11T05:44:30.591Z,98.58
2018-12-11T05:46:59.904Z,98.49
2018-12-11T05:49:28.982Z,98.79
2018-12-11T05:51:58.144Z,98.20
2018-12-11T05:54:27.622Z,98.87
2018-12-11T05:56:56.667Z,99.19
2018-12-11T05:59:25.751Z,98.23
2018-12-11T06:01:54.845Z,98.21
2018-12-11T06:04:24.103Z,98.50
2018-12-11T06:06:53.316Z,98.72
2018-12-11T06:09:24.579Z,98.67
2018-12-11T06:11:54.985Z,98.96
2018-12-11T06:14:24.187Z,99.19
2018-12-11T06:16:53.410Z,98.90
2018-12-11T06:19:24.275Z,98.14
2018-12-11T06:21:53.446Z,97.71
2018-12-11T06:24:22.496Z,98.51
2018-12-11T06:29:28.649Z,98.66
2018-12-11T06:31:57.674Z,98.16
2018-12-11T06:34:27.634Z,97.47
2018-12-11T06:36:56.682Z,97.93
2018-12-11T06:39:25.732Z,97.78
2018-12-11T06:44:30.503Z,97.74
2018-12-11T06:46:59.587Z,97.73
2018-12-11T06:52:04.358Z,98.00
2018-12-11T06:54:33.407Z,98.56
2018-12-11T06:57:02.545Z,99.19
2018-12-11T06:59:31.574Z,98.57
2018-12-11T07:02:00.606Z,98.27
2018-12-11T07:04:29.654Z,98.69
2018-12-11T07:06:58.685Z,97.96
2018-12-11T07:09:27.726Z,97.57
2018-12-11T07:11:56.777Z,98.22
2018-12-11T07:17:01.513Z,98.48
2018-12-11T07:19:30.569Z,97.68
2018-12-11T07:21:59.642Z,97.61
2018-12-11T07:24:28.672Z,97.67
2018-12-11T07:26:57.709Z,97.05
2018-12-11T07:29:26.752Z,97.00
2018-12-11T07:31:55.790Z,97.99
2018-12-11T07:34:24.831Z,99.08
2018-12-11T07:36:53.868Z,100.00
2018-12-11T07:39:22.918Z,100.00
2018-12-11T07:41:57.354Z,100.00
2018-12-11T07:47:02.073Z,100.00
2018-12-11T07:49:32.116Z,100.00
2018-12-11T07:52:01.482Z,100.00
2018-12-11T07:54:30.542Z,100.00
2018-12-11T07:56:59.593Z,100.00
2018-12-11T07:59:28.689Z,100.00
2018-12-11T08:01:57.730Z,100.00
2018-12-11T08:04:27.939Z,100.00
2018-12-11T08:09:35.118Z,100.00
2018-12-11T08:12:08.297Z,100.00
2018-12-11T08:17:09.647Z,100.00
2018-12-11T08:19:38.806Z,99.52
2018-12-11T08:22:07.861Z,99.36
2018-12-11T08:24:47.040Z,98.23
2018-12-11T08:27:16.069Z,98.77
2018-12-11T08:29:45.176Z,98.80
2018-12-11T08:32:14.162Z,98.32
2018-12-11T08:37:18.935Z,97.90
2018-12-11T08:39:47.962Z,97.53
2018-12-11T08:42:17.004Z,97.80
2018-12-11T08:44:51.126Z,96.59
2018-12-11T08:47:15.091Z,97.23
2018-12-11T08:49:44.130Z,96.32
2018-12-11T08:52:13.172Z,96.57
2018-12-11T08:54:42.211Z,95.94
2018-12-11T08:57:12.146Z,95.72
2018-12-11T08:59:41.290Z,95.51
2018-12-11T09:02:15.870Z,95.00
2018-12-11T09:04:50.364Z,95.40
2018-12-11T09:07:24.901Z,95.94
2018-12-11T09:09:59.463Z,95.89
2018-12-11T09:17:57.944Z,95.09
2018-12-11T09:20:32.663Z,94.10
2018-12-11T09:23:07.307Z,94.39
2018-12-11T09:25:42.018Z,95.00
2018-12-11T09:28:16.736Z,94.24
2018-12-11T09:30:51.271Z,94.45
2018-12-11T09:33:25.912Z,94.02
2018-12-11T09:41:19.195Z,93.12
2018-12-11T09:43:48.240Z,93.66
2018-12-11T09:46:17.287Z,93.01
2018-12-11T09:48:46.327Z,90.18
2018-12-11T09:51:17.886Z,92.26
2018-12-11T09:53:45.336Z,94.90
2018-12-11T09:56:14.364Z,95.70
2018-12-11T09:58:44.311Z,94.87
2018-12-11T10:03:49.101Z,93.96
2018-12-11T10:06:18.467Z,92.75
2018-12-11T10:08:47.488Z,92.14
2018-12-11T10:11:16.553Z,93.23
2018-12-11T10:13:45.607Z,93.47
2018-12-11T10:16:14.774Z,93.94
2018-12-11T10:18:43.838Z,94.29
2018-12-11T10:21:21.816Z,94.74
2018-12-11T10:23:51.740Z,95.10
2018-12-11T10:26:20.823Z,94.48
2018-12-11T10:28:49.855Z,94.34
2018-12-11T10:31:18.880Z,93.33
2018-12-11T10:33:49.299Z,94.29
2018-12-11T10:36:18.347Z,94.18
2018-12-11T10:38:47.751Z,93.81
2018-12-11T10:41:16.770Z,91.30
2018-12-11T10:43:45.883Z,92.64
2018-12-11T10:46:14.890Z,91.08
2018-12-11T10:48:49.667Z,90.12
2018-12-11T10:51:24.127Z,92.05
2018-12-11T10:53:58.713Z,93.38
2018-12-11T10:56:33.229Z,93.66
2018-12-11T11:04:19.891Z,94.68
2018-12-11T11:06:48.985Z,94.41
2018-12-11T11:09:18.024Z,95.17
2018-12-11T11:11:47.067Z,96.32
2018-12-11T11:14:17.134Z,99.31
2018-12-11T11:19:21.867Z,100.00
2018-12-11T11:21:50.908Z,100.00
2018-12-11T11:24:19.952Z,100.00
2018-12-11T11:26:49.009Z,100.00
2018-12-11T11:29:24.309Z,100.00
2018-12-11T11:31:53.342Z,100.00
2018-12-11T11:34:21.958Z,100.00
2018-12-11T11:36:50.469Z,100.00
2018-12-11T11:39:21.022Z,100.00
2018-12-11T11:41:49.534Z,100.00
2018-12-11T11:44:18.046Z,99.45
2018-12-11T11:46:46.561Z,100.00
2018-12-11T11:49:17.125Z,100.00
2018-12-11T11:51:47.999Z,100.00
2018-12-11T11:54:21.803Z,95.92
2018-12-11T11:56:51.211Z,92.47
2018-12-11T11:59:20.664Z,94.92
2018-12-11T12:01:49.194Z,94.61
2018-12-11T12:04:17.775Z,96.82
2018-12-11T12:06:51.091Z,98.04
2018-12-11T12:09:19.590Z,98.40
2018-12-11T12:11:49.033Z,100.00
2018-12-11T12:14:18.577Z,100.00
2018-12-11T12:16:48.001Z,100.00
2018-12-11T12:19:16.511Z,100.00
2018-12-11T15:09:19.900Z,100.00
2018-12-11T15:11:48.441Z,100.00
2018-12-11T15:14:21.486Z,100.00
2018-12-11T15:16:55.635Z,100.00
2018-12-11T15:19:29.733Z,100.00
2018-12-11T15:22:03.982Z,100.00
2018-12-11T15:24:33.895Z,100.00
2018-12-11T15:27:02.459Z,100.00
2018-12-11T15:29:31.005Z,100.00
2018-12-11T15:32:00.549Z,100.00
2018-12-11T15:34:31.056Z,100.00
2018-12-11T15:36:59.579Z,100.00
2018-12-11T15:39:28.090Z,100.00
2018-12-11T15:41:56.681Z,100.00
2018-12-11T15:44:25.315Z,100.00
2018-12-11T15:46:53.836Z,100.00
2018-12-11T15:53:16.082Z,100.00
2018-12-11T15:55:48.520Z,100.00
2018-12-11T15:58:17.072Z,100.00
2018-12-11T16:08:00.023Z,100.00
2018-12-11T16:10:29.018Z,100.00
2018-12-11T16:12:57.574Z,100.00
2018-12-11T16:15:26.109Z,100.00
2018-12-11T16:18:02.822Z,100.00
2018-12-11T16:20:31.371Z,100.00
2018-12-11T16:23:20.694Z,100.00
2018-12-11T16:25:52.637Z,100.00
2018-12-11T16:28:22.375Z,100.00
2018-12-11T16:31:05.658Z,100.00
2018-12-11T16:33:35.130Z,100.00
2018-12-11T16:36:21.112Z,100.00
2018-12-11T16:38:50.530Z,100.00
2018-12-11T16:41:21.019Z,100.00
2018-12-11T16:44:20.990Z,100.00
2018-12-11T16:47:20.906Z,100.00
2018-12-11T16:49:59.346Z,100.00
2018-12-11T16:52:29.766Z,100.00
2018-12-11T16:55:20.535Z,100.00
2018-12-11T16:58:16.125Z,100.00
2018-12-11T17:00:44.659Z,100.00
2018-12-11T17:03:13.172Z,100.00
2018-12-11T17:05:41.722Z,100.00
2018-12-11T17:08:21.479Z,100.00
2018-12-11T17:10:50.086Z,100.00
2018-12-11T17:13:21.717Z,100.00
2018-12-11T17:16:21.175Z,100.00
2018-12-11T17:18:49.778Z,100.00
2018-12-11T17:21:18.365Z,100.00
2018-12-11T17:24:08.835Z,100.00
2018-12-11T17:26:38.298Z,100.00
2018-12-11T17:29:24.137Z,100.00
2018-12-11T17:31:51.683Z,100.00
2018-12-11T17:34:20.649Z,100.00
2018-12-11T17:37:19.988Z,100.00
2018-12-11T17:39:48.564Z,100.00
2018-12-11T17:42:27.561Z,100.00
2018-12-11T17:44:59.507Z,100.00
2018-12-11T17:47:29.933Z,100.00
2018-12-11T17:49:59.436Z,100.00
2018-12-11T17:52:27.976Z,100.00
2018-12-11T17:54:56.506Z,100.00
2018-12-11T17:57:25.080Z,100.00
2018-12-11T17:59:53.610Z,100.00
2018-12-11T18:02:22.133Z,100.00
2018-12-11T18:04:54.857Z,100.00
2018-12-11T18:07:23.392Z,100.00
2018-12-11T18:09:51.939Z,100.00
2018-12-11T18:12:21.357Z,100.00
2018-12-11T18:15:07.575Z,100.00
2018-12-11T18:17:36.131Z,100.00
2018-12-11T18:20:04.637Z,100.00
2018-12-11T18:22:33.167Z,100.00
2018-12-11T18:25:08.843Z,100.00
2018-12-11T18:27:38.525Z,100.00
2018-12-11T18:30:07.838Z,100.00
2018-12-11T18:32:36.435Z,100.00
2018-12-11T18:35:19.902Z,100.00
2018-12-11T18:37:48.452Z,100.00
2018-12-11T18:40:16.976Z,100.00
2018-12-11T18:43:00.261Z,100.00
2018-12-11T18:45:29.687Z,100.00
2018-12-11T18:48:02.768Z,100.00
2018-12-11T18:50:31.304Z,100.00
2018-12-11T18:53:21.074Z,100.00
2018-12-11T18:55:49.544Z,100.00
2018-12-11T18:58:21.706Z,100.00
2018-12-11T19:00:53.574Z,100.00
2018-12-11T19:03:22.098Z,100.00
2018-12-11T19:06:20.317Z,100.00
2018-12-11T19:09:21.067Z,100.00
2018-12-11T19:11:50.523Z,100.00
2018-12-11T19:14:21.989Z,100.00
2018-12-11T19:16:51.369Z,100.00
2018-12-11T19:19:20.974Z,100.00
2018-12-11T19:22:25.343Z,100.00
2018-12-11T19:24:54.391Z,100.00
2018-12-11T19:27:22.961Z,100.00
2018-12-11T19:30:16.430Z,100.00
2018-12-11T19:32:44.990Z,100.00
2018-12-11T19:35:21.072Z,100.00
2018-12-11T19:38:10.671Z,100.00
2018-12-11T19:40:41.262Z,100.00
2018-12-11T19:43:14.283Z,100.00
2018-12-11T19:46:08.864Z,100.00
2018-12-11T19:48:37.394Z,100.00
2018-12-11T19:51:10.457Z,100.00
2018-12-11T19:53:39.873Z,100.00
2018-12-11T19:56:21.075Z,100.00
2018-12-11T19:59:21.952Z,100.00
2018-12-11T20:01:58.525Z,100.00
2018-12-11T20:04:27.058Z,100.00
2018-12-11T20:06:55.592Z,100.00
2018-12-11T20:09:24.157Z,100.00
2018-12-11T20:11:52.729Z,100.00
2018-12-11T20:14:28.850Z,100.00
2018-12-11T20:16:57.365Z,100.00
2018-12-11T20:19:26.866Z,100.00
2018-12-11T20:21:55.510Z,100.00
2018-12-11T20:24:24.026Z,100.00
2018-12-11T20:26:52.553Z,100.00
2018-12-11T20:29:21.095Z,100.00
2018-12-11T20:31:49.635Z,100.00
2018-12-11T20:34:30.864Z,100.00
2018-12-11T20:36:59.452Z,100.00
2018-12-11T20:39:35.814Z,100.00
2018-12-11T20:42:30.691Z,100.00
2018-12-11T20:44:59.252Z,100.00
2018-12-11T20:47:29.723Z,100.00
2018-12-11T20:49:58.247Z,100.00
2018-12-11T20:52:30.506Z,99.70
2018-12-11T20:55:09.983Z,99.85
2018-12-11T20:57:38.510Z,99.66
2018-12-11T21:00:15.385Z,99.38
2018-12-11T21:02:44.812Z,99.62
2018-12-11T21:05:13.334Z,99.65
2018-12-11T21:07:41.861Z,99.31
2018-12-11T21:10:17.428Z,99.38
2018-12-11T21:12:49.087Z,99.56
2018-12-11T21:15:19.548Z,99.70
2018-12-11T21:17:58.950Z,99.73
2018-12-11T21:20:27.485Z,99.84
2018-12-11T21:23:08.427Z,99.90
2018-12-11T21:25:37.062Z,100.00
2018-12-11T21:28:05.777Z,100.00
2018-12-11T21:30:34.303Z,100.00
2018-12-11T21:33:06.754Z,100.00
2018-12-11T21:35:35.288Z,100.00
2018-12-11T21:38:11.464Z,100.00
2018-12-11T21:40:39.987Z,100.00
2018-12-11T21:43:16.031Z,100.00
2018-12-11T21:46:19.189Z,100.00
2018-12-11T21:48:56.711Z,100.00
2018-12-11T21:51:26.163Z,100.00
2018-12-11T21:53:54.781Z,100.00
2018-12-11T21:56:24.204Z,100.00
2018-12-11T21:58:52.744Z,99.94
2018-12-11T22:01:21.274Z,100.00
2018-12-11T22:04:10.699Z,100.00
2018-12-11T22:06:39.235Z,99.89
2018-12-11T22:09:08.748Z,99.86
2018-12-11T22:11:37.919Z,100.00
2018-12-11T22:14:06.471Z,100.00
2018-12-11T22:16:35.005Z,100.00
2018-12-11T22:19:24.893Z,100.00
2018-12-11T22:21:56.678Z,100.00
2018-12-11T22:24:25.231Z,100.00
2018-12-11T22:26:53.769Z,100.00
2018-12-11T22:29:24.234Z,100.00
2018-12-11T22:31:57.431Z,100.00
2018-12-11T22:34:25.994Z,100.00
2018-12-11T22:36:54.528Z,100.00
2018-12-11T22:39:24.989Z,100.00
2018-12-11T22:41:53.533Z,100.00
2018-12-11T22:44:24.036Z,100.00
2018-12-11T22:47:07.147Z,100.00
2018-12-11T22:49:35.781Z,100.00
2018-12-11T22:52:04.382Z,100.00
2018-12-11T22:54:33.075Z,100.00
2018-12-11T22:57:07.086Z,100.00
2018-12-11T22:59:36.550Z,100.00
2018-12-11T23:02:15.635Z,100.00
2018-12-11T23:04:57.983Z,100.00
2018-12-11T23:07:26.554Z,100.00
2018-12-11T23:09:55.108Z,100.00
2018-12-11T23:12:24.403Z,100.00
2018-12-11T23:14:52.933Z,100.00
2018-12-11T23:17:22.509Z,100.00
2018-12-11T23:19:51.965Z,100.00
2018-12-11T23:22:24.207Z,100.00
2018-12-11T23:25:01.011Z,100.00
2018-12-11T23:27:29.553Z,100.00
2018-12-11T23:30:01.127Z,100.00
2018-12-11T23:32:29.686Z,100.00
2018-12-11T23:35:03.590Z,100.00
2018-12-11T23:37:32.139Z,100.00
2018-12-11T23:40:02.590Z,100.00
2018-12-11T23:42:31.166Z,100.00
2018-12-11T23:45:24.180Z,100.00
2018-12-11T23:48:23.660Z,100.00
2018-12-11T23:51:03.979Z,100.00
2018-12-11T23:53:32.545Z,100.00
2018-12-11T23:56:14.923Z,100.00
2018-12-11T23:58:44.926Z,100.00
